Time;durP1;ratioP1;P1;durP2;ratioP2;P2;SDS_P1;SDS_P2;PMS_P1;PMS_P2;Temp;Humidity;BMP_temperature;BMP_pressure;BME280_temperature;BME280_humidity;BME280_pressure;Samples;Min_cycle;Max_cycle;Signal;HPM_P1;HPM_P2
2022/09/29 00:01:07;;;;;;;8.10;7.00;;;;;;;10.89;92.45;96930.41;105042;1283;137906;-70
2022/09/29 00:03:36;;;;;;;10.30;7.50;;;;;;;10.89;92.73;96928.67;105147;1283;25262;-70
2022/09/29 00:06:03;;;;;;;9.70;7.10;;;;;;;10.88;92.57;96931.90;105116;1283;138417;-70
2022/09/29 00:08:30;;;;;;;12.10;7.20;;;;;;;10.88;92.81;96936.80;105279;1283;23067;-70
2022/09/29 00:10:57;;;;;;;8.20;6.90;;;;;;;10.88;92.78;96939.25;105341;1283;22559;-70
2022/09/29 00:13:26;;;;;;;11.10;7.60;;;;;;;10.87;92.87;96942.59;105007;1283;138077;-70
2022/09/29 00:15:59;;;;;;;12.40;9.40;;;;;;;10.87;92.93;96939.91;105220;1283;22867;-72
2022/09/29 00:18:28;;;;;;;12.50;9.40;;;;;;;10.87;92.67;96942.38;105084;1282;138144;-69
2022/09/29 00:21:11;;;;;;;14.80;10.00;;;;;;;10.85;92.86;96950.44;105296;1283;22664;-70
2022/09/29 00:23:41;;;;;;;11.80;9.30;;;;;;;10.83;92.91;96952.58;105332;1283;23154;-70
2022/09/29 00:26:12;;;;;;;16.20;10.70;;;;;;;10.82;92.98;96949.81;105268;1283;22546;-70
2022/09/29 00:28:51;;;;;;;17.20;11.60;;;;;;;10.80;92.94;96949.70;105413;1283;24444;-70
2022/09/29 00:31:19;;;;;;;17.20;11.10;;;;;;;10.81;92.82;96948.13;105248;1283;138257;-69
2022/09/29 00:33:46;;;;;;;17.60;12.00;;;;;;;10.80;92.99;96948.39;106692;1283;25553;-71
2022/09/29 00:36:15;;;;;;;15.90;11.40;;;;;;;10.80;92.81;96954.45;105119;1282;138345;-72
2022/09/29 00:38:43;;;;;;;17.50;12.40;;;;;;;10.80;93.02;96954.99;105382;1283;26569;-72
2022/09/29 00:41:16;;;;;;;16.60;13.00;;;;;;;10.78;93.02;96962.69;105500;1283;22561;-72
2022/09/29 00:43:50;;;;;;;17.30;13.30;;;;;;;10.78;93.02;96963.40;105355;1283;138561;-70
2022/09/29 00:46:50;;;;;;;17.80;13.90;;;;;;;10.76;92.99;96962.10;105355;1283;25207;-71
2022/09/29 00:49:25;;;;;;;19.10;14.60;;;;;;;10.74;92.96;96967.84;104901;1283;138425;-70
2022/09/29 00:52:02;;;;;;;21.80;14.80;;;;;;;10.72;93.00;96974.38;105273;1283;24335;-70
2022/09/29 00:54:36;;;;;;;19.30;14.40;;;;;;;10.71;92.91;96976.73;105385;1283;138296;-70
2022/09/29 00:57:09;;;;;;;19.70;14.70;;;;;;;10.68;93.04;96978.91;105398;1282;23379;-70
2022/09/29 00:59:41;;;;;;;17.20;13.90;;;;;;;10.65;92.99;96981.83;105230;1282;22768;-70
2022/09/29 01:02:08;;;;;;;17.90;12.70;;;;;;;10.59;93.28;96986.71;105098;1282;23163;-70
2022/09/29 01:04:35;;;;;;;18.90;12.70;;;;;;;10.54;93.48;96992.08;105090;1282;22556;-71
2022/09/29 01:07:02;;;;;;;15.50;12.40;;;;;;;10.49;93.47;96993.84;105235;1283;138505;-71
2022/09/29 01:09:33;;;;;;;16.80;10.60;;;;;;;10.43;93.54;96990.01;105249;1283;22734;-71
2022/09/29 01:12:01;;;;;;;20.70;14.50;;;;;;;10.38;93.78;96986.23;105195;1283;138495;-71
2022/09/29 01:14:30;;;;;;;19.90;13.80;;;;;;;10.35;94.10;96991.31;105262;1283;22638;-72
2022/09/29 01:16:58;;;;;;;20.30;14.10;;;;;;;10.32;94.23;96992.73;105219;1282;22794;-71
2022/09/29 01:19:37;;;;;;;21.20;14.00;;;;;;;10.29;94.11;97002.29;105114;1281;138108;-71
2022/09/29 01:22:12;;;;;;;16.90;12.70;;;;;;;10.26;94.09;97006.62;105121;1282;23242;-71
2022/09/29 01:24:39;;;;;;;16.90;12.90;;;;;;;10.20;94.35;97017.41;105046;1282;138638;-71
2022/09/29 01:27:12;;;;;;;16.70;13.30;;;;;;;10.18;94.58;97019.16;105216;1282;25268;-70
2022/09/29 01:29:54;;;;;;;19.30;14.10;;;;;;;10.14;94.67;97018.46;105358;1282;24651;-71
2022/09/29 01:32:55;;;;;;;20.70;13.70;;;;;;;10.13;94.94;97025.25;106510;1283;23612;-71
2022/09/29 01:35:42;;;;;;;15.80;11.40;;;;;;;10.14;94.82;97022.27;105257;1283;24373;-71
2022/09/29 01:38:16;;;;;;;17.40;13.80;;;;;;;10.12;94.46;97021.02;105094;1282;24308;-71
2022/09/29 01:40:58;;;;;;;19.50;13.50;;;;;;;10.11;94.35;97016.73;105078;1282;22779;-71
2022/09/29 01:43:32;;;;;;;17.90;12.90;;;;;;;10.10;94.20;97014.62;104961;1282;139574;-70
2022/09/29 01:46:05;;;;;;;18.30;12.60;;;;;;;10.09;94.00;97014.61;105287;1282;25380;-71
2022/09/29 01:48:39;;;;;;;20.00;13.30;;;;;;;10.09;94.17;97016.69;105564;1281;138840;-70
2022/09/29 01:51:12;;;;;;;19.60;12.90;;;;;;;10.08;94.17;97024.52;105520;1282;22541;-71
2022/09/29 01:53:49;;;;;;;16.90;12.90;;;;;;;10.06;94.22;97024.41;105351;1283;24307;-71
2022/09/29 01:56:24;;;;;;;18.60;13.20;;;;;;;10.06;94.31;97026.55;105276;1283;22717;-70
2022/09/29 01:59:13;;;;;;;18.70;14.00;;;;;;;10.06;94.31;97024.69;105358;1282;30611;-70
2022/09/29 02:01:45;;;;;;;17.10;12.10;;;;;;;10.07;94.27;97027.57;105177;1282;138261;-70
2022/09/29 02:04:27;;;;;;;22.90;13.70;;;;;;;10.07;94.21;97024.53;105060;1282;22549;-70
2022/09/29 02:07:03;;;;;;;16.90;11.70;;;;;;;10.08;93.93;97023.64;105040;1282;138187;-71
2022/09/29 02:09:37;;;;;;;17.30;11.50;;;;;;;10.07;94.00;97021.81;105334;1282;22580;-71
2022/09/29 02:12:07;;;;;;;19.90;11.90;;;;;;;10.07;93.58;97020.55;105301;1283;138875;-70
2022/09/29 02:14:39;;;;;;;17.40;10.90;;;;;;;10.08;93.54;97020.71;105270;1283;22730;-71
2022/09/29 02:17:32;;;;;;;12.90;10.10;;;;;;;10.07;93.61;97028.17;105312;1283;22546;-70
2022/09/29 02:19:59;;;;;;;16.90;10.50;;;;;;;10.08;93.66;97034.70;104976;1282;137991;-71
2022/09/29 02:22:26;;;;;;;13.20;10.90;;;;;;;10.08;93.56;97038.45;105037;1282;22784;-71
2022/09/29 02:24:57;;;;;;;16.60;11.00;;;;;;;10.08;93.68;97042.09;104976;1281;139424;-71
2022/09/29 02:27:28;;;;;;;13.50;10.70;;;;;;;10.08;93.63;97040.78;105175;1282;25352;-70
2022/09/29 02:29:58;;;;;;;13.20;10.60;;;;;;;10.07;93.53;97036.55;105179;1283;138772;-70
2022/09/29 02:32:25;;;;;;;19.40;12.30;;;;;;;10.07;93.78;97037.74;105277;1283;25273;-71
2022/09/29 02:34:54;;;;;;;17.20;12.50;;;;;;;10.06;93.79;97036.66;105352;1283;22564;-70
2022/09/29 02:37:42;;;;;;;20.80;14.10;;;;;;;10.05;93.93;97037.80;105105;1283;138400;-70
2022/09/29 02:40:38;;;;;;;18.00;13.00;;;;;;;10.05;94.17;97040.63;105009;1282;30613;-72
2022/09/29 02:43:47;;;;;;;20.20;13.30;;;;;;;10.04;94.09;97043.52;104857;1282;138221;-72
2022/09/29 02:47:02;;;;;;;18.60;14.30;;;;;;;10.03;94.39;97042.77;105066;1282;25526;-72
2022/09/29 02:49:51;;;;;;;20.70;14.50;;;;;;;10.02;94.40;97047.66;105262;1282;138506;-70
2022/09/29 02:52:48;;;;;;;20.50;15.10;;;;;;;10.02;94.40;97047.49;105197;1283;25333;-71
2022/09/29 02:55:59;;;;;;;19.90;15.00;;;;;;;10.01;94.47;97050.16;105003;1283;138229;-71
2022/09/29 02:58:48;;;;;;;24.70;16.20;;;;;;;9.99;94.39;97047.39;104713;1289;24009;-71
2022/09/29 03:01:17;;;;;;;21.20;14.90;;;;;;;9.99;94.48;97047.56;104604;1287;138301;-72
2022/09/29 03:03:44;;;;;;;27.50;16.70;;;;;;;9.98;94.67;97052.52;104695;1287;24312;-72
2022/09/29 03:06:12;;;;;;;21.50;15.30;;;;;;;9.97;94.57;97050.11;104576;1287;138384;-72
2022/09/29 03:08:39;;;;;;;23.50;16.40;;;;;;;9.96;94.59;97050.61;104711;1289;24240;-72
2022/09/29 03:11:06;;;;;;;25.10;16.40;;;;;;;9.95;94.68;97048.88;104660;1289;24261;-71
2022/09/29 03:13:33;;;;;;;21.50;14.90;;;;;;;9.95;94.79;97049.52;104484;1289;138842;-72
2022/09/29 03:16:00;;;;;;;22.10;16.00;;;;;;;9.95;94.81;97049.36;104684;1289;22637;-71
2022/09/29 03:18:27;;;;;;;24.10;15.90;;;;;;;9.95;94.80;97047.84;104596;1289;138129;-72
2022/09/29 03:20:54;;;;;;;26.00;15.00;;;;;;;9.95;94.94;97051.22;104756;1287;25609;-71
2022/09/29 03:23:21;;;;;;;20.30;14.90;;;;;;;9.93;94.88;97052.52;104740;1287;25519;-71
2022/09/29 03:25:48;;;;;;;21.40;14.90;;;;;;;9.91;94.80;97047.24;104644;1287;139257;-72
2022/09/29 03:28:17;;;;;;;19.10;13.40;;;;;;;9.88;94.62;97048.61;104724;1287;25558;-71
2022/09/29 03:30:44;;;;;;;18.80;13.10;;;;;;;9.86;94.42;97050.20;104547;1289;138311;-72
2022/09/29 03:33:11;;;;;;;16.10;12.80;;;;;;;9.84;94.27;97052.77;104801;1284;22580;-71
2022/09/29 03:35:38;;;;;;;14.00;10.90;;;;;;;9.82;94.21;97052.05;104936;1284;22925;-71
2022/09/29 03:38:05;;;;;;;16.90;11.90;;;;;;;9.79;94.12;97052.49;104737;1284;138673;-71
2022/09/29 03:40:32;;;;;;;14.90;11.40;;;;;;;9.77;93.90;97047.61;104964;1283;24238;-71
2022/09/29 03:42:58;;;;;;;15.20;11.80;;;;;;;9.75;93.87;97045.60;104855;1284;138226;-71
2022/09/29 03:45:25;;;;;;;18.80;13.10;;;;;;;9.74;93.90;97043.80;104923;1283;24251;-71
2022/09/29 03:47:52;;;;;;;17.10;11.70;;;;;;;9.73;93.97;97043.38;104842;1283;138382;-71
2022/09/29 03:50:19;;;;;;;17.70;11.10;;;;;;;9.70;93.69;97038.86;104955;1283;22536;-71
2022/09/29 03:52:46;;;;;;;16.80;12.20;;;;;;;9.70;93.86;97033.54;104969;1282;22769;-71
2022/09/29 03:55:13;;;;;;;16.80;12.50;;;;;;;9.68;93.82;97036.58;104931;1282;138374;-71
2022/09/29 03:57:40;;;;;;;15.00;10.50;;;;;;;9.67;93.88;97034.73;105000;1282;25327;-71
2022/09/29 04:00:07;;;;;;;19.40;11.60;;;;;;;9.65;94.01;97035.34;104998;1282;138455;-70
2022/09/29 04:02:39;;;;;;;17.10;11.20;;;;;;;9.65;94.12;97037.61;105296;1283;22627;-70
2022/09/29 04:05:06;;;;;;;16.20;12.20;;;;;;;9.63;94.10;97038.43;105174;1283;25392;-70
2022/09/29 04:07:33;;;;;;;17.50;11.50;;;;;;;9.63;94.15;97038.34;104965;1283;140004;-70
2022/09/29 04:10:03;;;;;;;22.40;13.80;;;;;;;9.62;94.28;97036.27;105144;1282;25281;-70
2022/09/29 04:12:30;;;;;;;19.40;13.80;;;;;;;9.60;94.32;97028.33;104826;1282;138663;-70
2022/09/29 04:14:56;;;;;;;18.60;12.70;;;;;;;9.57;94.60;97031.27;104973;1282;23138;-70
2022/09/29 04:17:24;;;;;;;21.70;13.30;;;;;;;9.55;94.96;97041.54;104970;1282;25270;-70
2022/09/29 04:19:51;;;;;;;20.00;13.90;;;;;;;9.55;95.15;97051.05;104775;1282;138080;-70
2022/09/29 04:22:17;;;;;;;22.70;12.70;;;;;;;9.55;95.21;97055.56;105142;1283;22585;-71
2022/09/29 04:24:47;;;;;;;16.80;12.50;;;;;;;9.55;95.32;97058.83;105124;1283;138221;-71
2022/09/29 04:27:14;;;;;;;23.80;13.20;;;;;;;9.55;95.30;97066.16;105274;1283;25229;-71
2022/09/29 04:29:41;;;;;;;20.60;13.20;;;;;;;9.55;95.32;97062.63;105191;1283;23099;-71
2022/09/29 04:32:09;;;;;;;21.10;14.10;;;;;;;9.54;95.16;97065.02;105095;1282;137851;-71
2022/09/29 04:34:35;;;;;;;21.50;14.20;;;;;;;9.54;95.36;97068.17;104951;1282;24483;-71
2022/09/29 04:37:02;;;;;;;19.90;14.00;;;;;;;9.54;95.48;97067.80;104916;1282;138129;-71
2022/09/29 04:39:29;;;;;;;22.20;14.10;;;;;;;9.55;95.38;97067.91;105119;1281;22742;-71
2022/09/29 04:41:58;;;;;;;21.70;14.20;;;;;;;9.54;95.33;97067.58;105098;1282;138433;-71
2022/09/29 04:44:26;;;;;;;25.00;13.90;;;;;;;9.54;95.43;97067.26;105298;1283;25247;-71
2022/09/29 04:46:52;;;;;;;21.50;12.00;;;;;;;9.54;95.48;97066.82;105317;1283;24227;-71
2022/09/29 04:49:20;;;;;;;21.30;13.70;;;;;;;9.54;95.38;97064.64;105346;1283;138079;-71
2022/09/29 04:51:46;;;;;;;22.60;13.10;;;;;;;9.54;95.48;97062.58;105340;1283;25395;-71
2022/09/29 04:54:13;;;;;;;21.90;14.00;;;;;;;9.53;95.38;97070.67;105176;1283;139037;-71
2022/09/29 04:56:41;;;;;;;22.40;13.10;;;;;;;9.54;95.54;97077.04;105238;1283;24410;-71
2022/09/29 04:59:09;;;;;;;25.00;13.90;;;;;;;9.55;95.64;97081.34;105312;1283;25398;-71
2022/09/29 05:01:36;;;;;;;23.20;13.70;;;;;;;9.54;95.37;97086.33;105143;1283;138844;-71
2022/09/29 05:04:03;;;;;;;22.50;13.70;;;;;;;9.54;95.38;97081.71;105062;1283;22544;-71
2022/09/29 05:06:29;;;;;;;20.60;13.00;;;;;;;9.54;95.25;97086.31;105284;1283;138142;-71
2022/09/29 05:08:56;;;;;;;21.30;13.40;;;;;;;9.54;95.37;97092.86;105245;1283;25248;-70
2022/09/29 05:11:23;;;;;;;26.80;14.60;;;;;;;9.53;95.18;97099.64;105369;1283;25669;-70
2022/09/29 05:13:50;;;;;;;24.10;14.40;;;;;;;9.53;95.22;97103.73;105323;1283;138444;-70
2022/09/29 05:16:17;;;;;;;27.90;13.90;;;;;;;9.53;95.26;97103.41;105356;1283;26846;-70
2022/09/29 05:18:43;;;;;;;23.30;14.10;;;;;;;9.52;95.26;97100.14;105441;1283;141657;-70
2022/09/29 05:21:11;;;;;;;22.10;14.70;;;;;;;9.53;95.32;97108.08;105569;1283;22561;-71
2022/09/29 05:23:38;;;;;;;25.10;14.60;;;;;;;9.53;95.20;97117.15;105225;1283;138121;-71
2022/09/29 05:26:07;;;;;;;23.90;16.40;;;;;;;9.53;95.23;97121.71;105330;1283;24504;-70
2022/09/29 05:28:35;;;;;;;27.40;16.90;;;;;;;9.53;95.40;97119.60;105367;1283;25530;-70
2022/09/29 05:31:07;;;;;;;22.20;15.60;;;;;;;9.54;95.30;97119.15;105237;1283;138250;-70
2022/09/29 05:33:35;;;;;;;22.30;14.80;;;;;;;9.54;95.26;97120.35;105245;1283;30607;-70
2022/09/29 05:36:10;;;;;;;25.80;16.20;;;;;;;9.54;95.29;97121.05;105107;1283;138220;-70
2022/09/29 05:38:38;;;;;;;22.90;15.40;;;;;;;9.55;95.30;97119.33;105236;1282;24473;-70
2022/09/29 05:41:07;;;;;;;26.50;16.00;;;;;;;9.55;95.16;97116.88;105214;1281;138761;-70
2022/09/29 05:43:34;;;;;;;22.20;15.10;;;;;;;9.55;95.01;97118.23;105120;1282;25553;-70
2022/09/29 05:46:02;;;;;;;23.10;13.80;;;;;;;9.55;94.90;97118.78;105523;1283;24386;-72
2022/09/29 05:48:29;;;;;;;22.10;14.70;;;;;;;9.55;94.98;97121.72;105273;1283;138885;-73
2022/09/29 05:50:57;;;;;;;23.20;14.70;;;;;;;9.54;94.76;97120.57;105318;1283;23952;-73
2022/09/29 05:53:25;;;;;;;23.50;15.30;;;;;;;9.55;94.88;97121.39;105270;1282;141296;-73
2022/09/29 05:55:52;;;;;;;24.30;14.60;;;;;;;9.55;94.72;97121.39;105792;1281;24288;-71
2022/09/29 05:58:19;;;;;;;21.30;14.70;;;;;;;9.57;94.71;97120.31;106031;1282;23136;-71
2022/09/29 06:00:45;;;;;;;19.80;14.20;;;;;;;9.57;94.79;97117.80;105390;1282;138110;-71
2022/09/29 06:03:12;;;;;;;19.70;13.20;;;;;;;9.59;94.80;97118.45;105846;1282;24550;-71
2022/09/29 06:05:51;;;;;;;23.20;13.20;;;;;;;9.61;94.60;97115.73;105831;1282;138368;-71
2022/09/29 06:08:18;;;;;;;14.10;9.80;;;;;;;9.62;94.72;97122.20;105358;1283;24116;-71
2022/09/29 06:10:45;;;;;;;21.50;13.90;;;;;;;9.70;95.73;97123.83;105150;1283;24494;-71
2022/09/29 06:13:11;;;;;;;19.10;13.90;;;;;;;9.76;95.17;97123.02;105072;1282;22958;-71
2022/09/29 06:16:00;;;;;;;18.00;13.20;;;;;;;9.80;94.71;97119.21;105259;1282;25505;-71
2022/09/29 06:18:27;;;;;;;20.30;12.90;;;;;;;9.83;94.59;97117.24;105497;1281;138782;-71
2022/09/29 06:20:59;;;;;;;22.00;13.40;;;;;;;9.86;94.69;97119.80;105409;1282;25451;-72
2022/09/29 06:23:26;;;;;;;18.00;12.30;;;;;;;9.94;95.00;97122.47;105651;1282;138475;-72
2022/09/29 06:25:57;;;;;;;16.70;12.50;;;;;;;9.98;94.50;97118.49;105493;1283;24339;-72
2022/09/29 06:28:24;;;;;;;15.70;12.50;;;;;;;10.01;94.07;97120.00;105174;1283;25461;-72
2022/09/29 06:30:51;;;;;;;22.20;13.30;;;;;;;10.04;94.06;97123.05;105256;1283;138379;-72
2022/09/29 06:33:19;;;;;;;20.70;13.90;;;;;;;10.06;93.84;97130.60;105167;1282;22551;-72
2022/09/29 06:38:33;;;;;;;23.70;16.30;;;;;;;10.08;93.09;97122.39;105228;1282;25548;-72
2022/09/29 06:41:01;;;;;;;24.80;15.50;;;;;;;10.08;92.73;97119.61;105138;1282;138701;-72
2022/09/29 06:43:27;;;;;;;22.50;15.80;;;;;;;10.08;92.47;97124.66;105260;1282;25651;-72
2022/09/29 06:45:54;;;;;;;24.20;15.70;;;;;;;10.10;92.49;97119.17;105140;1283;25295;-72
2022/09/29 06:48:31;;;;;;;24.40;15.80;;;;;;;10.11;92.60;97115.05;105127;1283;138377;-72
2022/09/29 06:51:01;;;;;;;25.00;16.00;;;;;;;10.13;92.79;97118.78;105574;1283;25012;-72
2022/09/29 06:53:28;;;;;;;25.70;15.30;;;;;;;10.13;92.75;97122.77;105642;1283;138464;-72
2022/09/29 06:55:55;;;;;;;26.60;14.90;;;;;;;10.11;92.42;97127.66;105489;1283;24342;-72
2022/09/29 06:58:23;;;;;;;22.60;14.60;;;;;;;10.11;92.54;97125.70;106281;1282;24043;-72
2022/09/29 07:00:52;;;;;;;21.10;13.30;;;;;;;10.11;92.28;97122.65;105427;1283;138313;-72
2022/09/29 07:03:20;;;;;;;19.00;13.60;;;;;;;10.12;92.52;97121.23;106551;1281;25448;-72
2022/09/29 07:05:51;;;;;;;19.90;11.70;;;;;;;10.14;92.42;97124.44;105333;1283;138388;-72
2022/09/29 07:08:23;;;;;;;18.20;12.40;;;;;;;10.17;92.38;97130.26;105503;1283;24117;-72
2022/09/29 07:10:51;;;;;;;19.30;13.40;;;;;;;10.19;92.40;97126.66;105280;1283;138441;-72
2022/09/29 07:13:18;;;;;;;19.60;12.50;;;;;;;10.22;92.42;97129.05;105303;1282;23073;-72
2022/09/29 07:15:46;;;;;;;21.20;12.70;;;;;;;10.23;92.23;97132.38;105497;1283;23009;-72
2022/09/29 07:18:13;;;;;;;17.90;13.20;;;;;;;10.24;92.22;97130.90;105421;1283;139654;-72
2022/09/29 07:20:40;;;;;;;18.90;11.60;;;;;;;10.27;91.96;97131.23;105271;1283;22564;-72
2022/09/29 07:23:08;;;;;;;20.60;11.40;;;;;;;10.28;91.92;97131.22;106066;1283;138622;-72
2022/09/29 07:25:35;;;;;;;20.00;12.00;;;;;;;10.30;91.76;97131.10;105483;1283;40577;-70
2022/09/29 07:28:03;;;;;;;18.60;11.10;;;;;;;10.32;91.29;97132.92;105625;1283;25262;-72
2022/09/29 07:30:31;;;;;;;16.60;11.40;;;;;;;10.33;91.66;97136.07;105217;1283;138982;-72
2022/09/29 07:33:02;;;;;;;20.50;11.30;;;;;;;10.33;91.25;97138.80;105403;1283;22833;-72
2022/09/29 07:35:32;;;;;;;15.80;9.30;;;;;;;10.31;91.02;97146.02;105446;1283;138548;-72
2022/09/29 07:37:59;;;;;;;15.00;10.00;;;;;;;10.28;91.05;97146.13;105702;1281;25329;-72
2022/09/29 07:40:27;;;;;;;19.20;10.40;;;;;;;10.25;90.92;97146.23;105479;1281;25395;-72
2022/09/29 07:42:54;;;;;;;20.60;11.10;;;;;;;10.23;90.99;97149.61;105292;1283;138625;-73
2022/09/29 07:45:21;;;;;;;18.50;10.60;;;;;;;10.22;91.31;97150.98;105431;1283;22619;-73
2022/09/29 07:47:48;;;;;;;20.00;12.40;;;;;;;10.21;91.47;97153.80;105213;1283;138594;-73
2022/09/29 07:50:14;;;;;;;18.80;12.00;;;;;;;10.20;91.64;97159.91;105330;1283;22633;-73
2022/09/29 07:52:41;;;;;;;19.90;12.00;;;;;;;10.21;91.92;97160.45;105210;1281;22565;-72
2022/09/29 07:55:08;;;;;;;18.50;12.20;;;;;;;10.22;91.91;97166.82;104984;1282;138767;-73
2022/09/29 07:57:36;;;;;;;21.60;13.30;;;;;;;10.25;92.21;97173.61;105004;1282;22785;-73
2022/09/29 08:00:03;;;;;;;18.50;12.10;;;;;;;10.30;92.44;97178.73;104985;1282;138872;-72
2022/09/29 08:02:38;;;;;;;20.90;11.60;;;;;;;10.36;92.74;97182.66;105119;1282;22553;-72
2022/09/29 08:05:05;;;;;;;17.10;10.90;;;;;;;10.43;92.51;97180.02;105294;1282;139108;-72
2022/09/29 08:07:32;;;;;;;18.80;11.00;;;;;;;10.48;92.07;97182.73;105257;1283;22762;-72
2022/09/29 08:09:59;;;;;;;14.70;9.90;;;;;;;10.54;92.22;97177.93;105265;1283;25341;-72
2022/09/29 08:12:27;;;;;;;13.60;9.30;;;;;;;10.59;91.90;97175.91;105235;1283;138314;-71
2022/09/29 08:14:55;;;;;;;14.80;9.90;;;;;;;10.64;91.71;97176.27;105389;1282;22566;-72
2022/09/29 08:17:53;;;;;;;14.30;9.30;;;;;;;10.68;91.60;97175.11;105028;1282;138365;-71
2022/09/29 08:20:21;;;;;;;19.00;10.20;;;;;;;10.75;91.78;97177.81;105308;1282;25343;-72
2022/09/29 08:22:49;;;;;;;14.70;9.90;;;;;;;10.81;91.56;97185.52;105415;1282;139079;-72
2022/09/29 08:25:16;;;;;;;14.80;10.70;;;;;;;10.87;91.45;97186.60;105825;1282;26159;-73
2022/09/29 08:27:44;;;;;;;16.00;11.70;;;;;;;10.93;91.40;97192.25;105601;1283;24321;-72
2022/09/29 08:30:11;;;;;;;21.70;11.80;;;;;;;10.96;91.11;97191.52;105236;1281;138366;-72
2022/09/29 08:32:38;;;;;;;19.10;10.90;;;;;;;11.01;90.85;97192.86;105382;1283;24401;-72
2022/09/29 08:35:06;;;;;;;19.10;10.30;;;;;;;11.03;90.36;97194.76;105091;1282;138696;-72
2022/09/29 08:37:33;;;;;;;14.60;10.50;;;;;;;11.06;90.72;97196.70;105069;1282;25339;-72
2022/09/29 08:40:00;;;;;;;16.50;10.80;;;;;;;11.10;90.69;97199.30;105305;1282;22550;-72
2022/09/29 08:42:47;;;;;;;11.60;8.80;;;;;;;11.16;90.84;97202.38;105044;1282;138992;-72
2022/09/29 08:45:24;;;;;;;14.70;9.40;;;;;;;11.24;90.42;97206.10;105057;1282;25336;-72
2022/09/29 08:47:54;;;;;;;12.70;8.80;;;;;;;11.29;90.02;97206.08;105604;1281;138087;-71
2022/09/29 08:50:30;;;;;;;13.90;9.20;;;;;;;11.35;90.12;97213.67;106026;1283;22626;-71
2022/09/29 08:53:06;;;;;;;10.60;8.60;;;;;;;11.42;89.74;97214.58;105149;1283;138215;-71
2022/09/29 08:55:52;;;;;;;12.10;9.30;;;;;;;11.50;89.23;97215.61;105197;1283;23046;-71
2022/09/29 08:58:20;;;;;;;12.40;9.70;;;;;;;11.57;89.49;97213.61;105355;1282;25382;-71
2022/09/29 09:01:01;;;;;;;13.20;9.10;;;;;;;11.69;89.91;97216.75;105159;1283;138141;-71
2022/09/29 09:04:08;;;;;;;13.60;10.20;;;;;;;11.80;88.77;97215.38;105200;1283;25532;-71
2022/09/29 09:07:09;;;;;;;12.40;9.50;;;;;;;11.88;88.47;97215.80;105253;1283;138400;-71
2022/09/29 09:09:45;;;;;;;13.00;9.70;;;;;;;11.95;88.31;97216.48;105393;1283;24087;-71
2022/09/29 09:12:31;;;;;;;11.50;9.00;;;;;;;12.02;88.32;97220.96;105505;1281;138707;-71
2022/09/29 09:15:20;;;;;;;12.80;9.90;;;;;;;12.08;88.16;97213.73;105552;1283;22577;-71
2022/09/29 09:18:10;;;;;;;12.40;7.80;;;;;;;12.13;87.77;97212.42;105611;1283;138244;-71
2022/09/29 09:20:52;;;;;;;9.00;7.20;;;;;;;12.14;87.04;97212.63;105195;1283;25535;-71
2022/09/29 09:23:33;;;;;;;8.20;6.70;;;;;;;12.20;86.74;97214.17;105419;1283;138716;-71
2022/09/29 09:26:02;;;;;;;7.50;6.00;;;;;;;12.31;86.30;97209.04;105572;1283;22565;-71
2022/09/29 09:28:40;;;;;;;7.10;5.30;;;;;;;12.41;85.96;97208.35;105205;1283;24321;-70
2022/09/29 09:31:30;;;;;;;5.50;4.90;;;;;;;12.49;84.91;97216.35;105111;1283;138295;-70
2022/09/29 09:34:05;;;;;;;8.40;4.70;;;;;;;12.54;82.68;97210.03;105541;1283;22544;-70
2022/09/29 09:37:10;;;;;;;8.60;5.80;;;;;;;12.59;82.74;97208.56;105344;1283;138272;-70
2022/09/29 09:39:55;;;;;;;8.40;5.30;;;;;;;12.69;83.32;97211.77;104912;1289;31465;-71
2022/09/29 09:42:29;;;;;;;6.20;4.70;;;;;;;12.75;83.04;97211.73;104777;1288;138194;-71
2022/09/29 09:45:13;;;;;;;7.80;4.80;;;;;;;12.76;82.33;97212.69;104820;1288;24390;-70
2022/09/29 09:47:48;;;;;;;8.00;4.70;;;;;;;12.79;82.23;97219.98;104660;1287;138740;-71
2022/09/29 09:50:21;;;;;;;6.60;4.90;;;;;;;12.82;81.98;97219.14;105144;1287;22608;-70
2022/09/29 09:53:20;;;;;;;4.10;3.70;;;;;;;12.83;81.49;97220.59;104599;1288;138684;-70
2022/09/29 09:56:04;;;;;;;3.40;3.10;;;;;;;12.81;81.32;97215.96;104703;1287;24109;-70
2022/09/29 09:59:02;;;;;;;3.60;2.50;;;;;;;12.75;80.75;97222.75;104486;1289;25551;-70
2022/09/29 10:01:29;;;;;;;3.90;2.30;;;;;;;12.70;80.28;97227.94;104804;1287;22888;-70
2022/09/29 10:03:58;;;;;;;3.10;2.50;;;;;;;12.68;80.48;97232.61;104767;1287;22538;-69
2022/09/29 10:06:25;;;;;;;2.50;1.90;;;;;;;12.65;79.66;97234.72;104917;1286;138249;-70
2022/09/29 10:08:52;;;;;;;4.40;2.10;;;;;;;12.64;79.06;97232.05;104663;1287;22648;-69
2022/09/29 10:11:29;;;;;;;2.10;1.90;;;;;;;12.65;79.11;97228.98;104872;1287;138194;-69
2022/09/29 10:14:05;;;;;;;3.10;2.60;;;;;;;12.66;79.47;97227.10;104998;1287;22622;-69
2022/09/29 10:16:55;;;;;;;2.30;1.90;;;;;;;12.65;79.05;97224.77;104983;1284;25133;-70
2022/09/29 10:19:43;;;;;;;2.30;1.50;;;;;;;12.64;78.28;97229.15;105730;1283;22565;-69
2022/09/29 10:22:14;;;;;;;3.10;1.70;;;;;;;12.57;75.95;97233.81;105329;1282;24343;-69
2022/09/29 10:24:42;;;;;;;4.50;1.60;;;;;;;12.52;75.16;97235.45;105147;1283;138917;-70
2022/09/29 10:27:10;;;;;;;5.60;2.10;;;;;;;12.48;75.18;97237.94;105463;1283;24089;-69
2022/09/29 10:29:42;;;;;;;4.40;1.80;;;;;;;12.47;75.49;97238.39;105111;1283;138501;-69
2022/09/29 10:32:36;;;;;;;3.90;1.80;;;;;;;12.47;76.27;97235.00;105306;1283;24301;-69
2022/09/29 10:35:14;;;;;;;;;;;;;;;12.49;77.12;97239.36;105412;1283;138018;-69
2022/09/29 10:37:46;;;;;;;3.60;2.40;;;;;;;12.50;77.35;97240.60;105467;1283;25451;-69
2022/09/29 10:40:20;;;;;;;7.10;4.00;;;;;;;12.49;76.52;97243.94;105508;1283;22567;-69
2022/09/29 10:42:49;;;;;;;6.10;4.10;;;;;;;12.38;76.53;97246.07;105377;1283;137910;-69
2022/09/29 10:45:30;;;;;;;6.40;4.50;;;;;;;12.27;76.98;97244.08;105177;1283;25555;-69
2022/09/29 10:48:13;;;;;;;5.80;4.40;;;;;;;12.20;77.48;97242.55;105206;1283;138552;-69
2022/09/29 10:50:51;;;;;;;13.60;5.10;;;;;;;12.13;77.13;97242.10;105429;1282;23376;-69
2022/09/29 10:53:40;;;;;;;6.20;4.20;;;;;;;12.10;77.52;97243.39;105098;1282;139325;-70
2022/09/29 10:56:15;;;;;;;;;;;;;;;12.08;76.76;97241.34;105202;1282;25426;-69
2022/09/29 10:59:05;;;;;;;9.50;4.50;;;;;;;12.05;76.56;97245.79;105168;1282;22543;-68
2022/09/29 11:01:51;;;;;;;8.70;4.60;;;;;;;12.04;77.19;97246.06;105611;1282;29256;-69
2022/09/29 11:04:23;;;;;;;6.90;4.30;;;;;;;12.08;77.66;97251.86;105226;1283;23945;-68
2022/09/29 11:06:52;;;;;;;8.00;4.70;;;;;;;12.10;77.65;97250.59;104949;1283;138212;-68
2022/09/29 11:09:19;;;;;;;5.90;3.50;;;;;;;12.11;77.45;97258.34;105389;1283;22562;-69
2022/09/29 11:11:46;;;;;;;6.90;3.90;;;;;;;12.10;77.45;97261.95;105154;1282;137968;-68
2022/09/29 11:14:38;;;;;;;6.90;4.30;;;;;;;12.09;77.46;97261.52;105640;1281;22630;-68
2022/09/29 11:17:35;;;;;;;3.60;3.30;;;;;;;12.11;77.85;97267.84;105720;1280;137933;-69
2022/09/29 11:20:09;;;;;;;16.90;4.30;;;;;;;12.13;77.46;97272.46;105630;1280;25455;-68
2022/09/29 11:22:45;;;;;;;6.00;3.60;;;;;;;12.12;77.08;97270.02;105494;1281;22573;-68
2022/09/29 11:25:21;;;;;;;10.80;4.20;;;;;;;12.06;76.87;97267.34;105499;1281;137606;-68
2022/09/29 11:28:01;;;;;;;5.10;3.20;;;;;;;12.06;76.98;97269.02;105564;1280;28489;-69
2022/09/29 11:30:43;;;;;;;;;;;;;;;12.09;76.75;97265.17;105532;1280;139286;-68
2022/09/29 11:33:48;;;;;;;8.40;3.40;;;;;;;12.09;76.70;97264.64;105450;1281;23945;-69
2022/09/29 11:36:45;;;;;;;3.70;2.80;;;;;;;12.14;76.63;97261.03;104996;1281;137982;-68
2022/09/29 11:39:25;;;;;;;3.60;3.20;;;;;;;12.27;77.05;97264.60;105424;1281;25268;-69
2022/09/29 11:41:59;;;;;;;7.70;3.10;;;;;;;12.43;77.04;97266.77;105634;1280;138175;-69
2022/09/29 11:44:48;;;;;;;5.50;3.70;;;;;;;12.55;77.20;97266.23;106610;1281;24058;-69